Time;durP1;ratioP1;P1;durP2;ratioP2;P2;SDS_P1;SDS_P2;PMS_P1;PMS_P2;Temp;Humidity;BMP_temperature;BMP_pressure;BME280_temperature;BME280_humidity;BME280_pressure;Samples;Min_cycle;Max_cycle;Signal;HPM_P1;HPM_P2
2023/02/10 00:01:05;;;;;;;14.85;6.93;;;3.30;99.90;;;;;;5016229;28;20057;-38
2023/02/10 00:03:31;;;;;;;17.73;6.88;;;3.30;99.90;;;;;;5016188;28;20497;-53
2023/02/10 00:05:57;;;;;;;14.85;7.50;;;3.30;99.90;;;;;;5016076;28;20038;-39
2023/02/10 00:08:23;;;;;;;17.60;7.03;;;3.30;99.90;;;;;;5025809;28;20037;-39
2023/02/10 00:10:48;;;;;;;19.30;7.78;;;3.30;99.90;;;;;;5033802;28;20025;-41
2023/02/10 00:13:14;;;;;;;13.93;6.88;;;3.30;99.90;;;;;;5035759;28;20049;-40
2023/02/10 00:15:39;;;;;;;16.88;7.38;;;3.30;99.90;;;;;;5035882;28;20104;-37
2023/02/10 00:18:05;;;;;;;14.82;7.40;;;3.30;99.90;;;;;;5035665;28;20056;-39
2023/02/10 00:20:31;;;;;;;19.88;6.63;;;3.20;99.90;;;;;;5034268;28;20101;-39
2023/02/10 00:22:56;;;;;;;24.58;7.85;;;3.20;99.90;;;;;;5035409;28;20049;-39
2023/02/10 00:25:22;;;;;;;14.98;6.72;;;3.20;99.90;;;;;;5035232;28;20393;-39
2023/02/10 00:27:48;;;;;;;14.82;6.35;;;3.20;99.90;;;;;;5016216;28;20106;-39
2023/02/10 00:30:13;;;;;;;14.88;6.15;;;3.20;99.90;;;;;;5014336;28;20466;-39
2023/02/10 00:32:40;;;;;;;16.00;7.03;;;3.20;99.90;;;;;;5029430;28;20033;-39
2023/02/10 00:35:07;;;;;;;19.70;7.10;;;3.20;99.90;;;;;;5035612;28;20492;-39
2023/02/10 00:37:32;;;;;;;13.98;6.45;;;3.10;99.90;;;;;;5035288;28;20013;-39
2023/02/10 00:39:58;;;;;;;19.75;6.05;;;3.10;99.90;;;;;;5034016;28;20367;-39
2023/02/10 00:42:24;;;;;;;12.05;5.90;;;3.10;99.90;;;;;;5034175;28;20026;-39
2023/02/10 00:44:50;;;;;;;12.52;5.50;;;3.10;99.90;;;;;;5020495;28;20035;-38
2023/02/10 00:47:16;;;;;;;15.10;6.45;;;3.10;99.90;;;;;;5035044;28;20033;-39
2023/02/10 00:49:42;;;;;;;20.65;7.20;;;3.10;99.90;;;;;;5034880;28;20032;-39
2023/02/10 00:52:08;;;;;;;13.65;6.57;;;3.10;99.90;;;;;;5034962;28;20030;-41
2023/02/10 00:54:33;;;;;;;17.85;6.45;;;3.10;99.90;;;;;;5032257;28;20045;-38
2023/02/10 00:56:59;;;;;;;12.32;5.88;;;3.10;99.90;;;;;;5034944;28;20099;-39
2023/02/10 00:59:24;;;;;;;13.90;5.57;;;3.10;99.90;;;;;;5034006;28;20436;-38
2023/02/10 01:01:50;;;;;;;14.18;6.18;;;3.10;99.90;;;;;;5014742;28;20034;-40
2023/02/10 01:04:16;;;;;;;13.13;6.88;;;3.10;99.90;;;;;;5015779;28;20060;-39
2023/02/10 01:06:41;;;;;;;12.85;5.55;;;3.10;99.90;;;;;;5026384;28;20060;-39
2023/02/10 01:09:07;;;;;;;9.80;5.93;;;3.10;99.90;;;;;;5034922;28;20132;-37
2023/02/10 01:11:33;;;;;;;17.90;6.97;;;3.10;99.90;;;;;;5034632;28;20413;-38
2023/02/10 01:13:59;;;;;;;15.27;6.03;;;3.00;99.90;;;;;;5025363;28;20026;-38
2023/02/10 01:16:24;;;;;;;12.57;5.32;;;3.00;99.90;;;;;;5015218;28;20018;-38
2023/02/10 01:18:50;;;;;;;13.05;6.03;;;3.00;99.90;;;;;;5024410;28;20030;-40
2023/02/10 01:21:19;;;;;;;14.93;5.88;;;3.10;99.90;;;;;;5014601;28;20096;-39
2023/02/10 01:23:46;;;;;;;16.23;5.75;;;3.10;99.90;;;;;;5028466;28;20045;-37
2023/02/10 01:26:12;;;;;;;22.10;6.60;;;3.10;99.90;;;;;;5016143;28;20093;-38
2023/02/10 01:28:42;;;;;;;13.80;6.35;;;3.00;99.90;;;;;;5018319;28;20525;-37
2023/02/10 01:31:10;;;;;;;17.83;7.07;;;3.00;99.90;;;;;;5016234;28;20501;-35
2023/02/10 01:33:36;;;;;;;11.52;5.38;;;3.00;99.90;;;;;;5023617;28;20033;-36
2023/02/10 01:36:10;;;;;;;12.82;6.55;;;3.00;99.90;;;;;;5030648;28;20451;-37
2023/02/10 01:38:36;;;;;;;16.88;6.32;;;3.00;99.90;;;;;;5034156;28;20079;-37
2023/02/10 01:41:03;;;;;;;18.67;6.60;;;2.90;99.90;;;;;;5032455;28;20474;-37
2023/02/10 01:43:29;;;;;;;16.40;6.63;;;2.90;99.90;;;;;;5032425;28;20037;-36
2023/02/10 01:45:54;;;;;;;18.23;6.43;;;2.90;99.90;;;;;;5028177;28;20548;-35
2023/02/10 01:48:22;;;;;;;12.45;5.60;;;2.90;99.90;;;;;;5034123;28;20351;-36
2023/02/10 01:50:56;;;;;;;13.32;5.38;;;2.90;99.90;;;;;;5034083;28;20543;-48
2023/02/10 01:53:24;;;;;;;19.65;6.05;;;2.90;99.90;;;;;;5032295;28;20485;-39
2023/02/10 01:55:54;;;;;;;9.37;5.37;;;2.90;99.90;;;;;;5032708;28;20082;-41
2023/02/10 01:58:24;;;;;;;16.85;6.43;;;2.90;99.90;;;;;;5033640;28;20036;-44
2023/02/10 02:00:50;;;;;;;16.33;6.97;;;2.90;99.90;;;;;;5024444;28;20033;-39
2023/02/10 02:03:15;;;;;;;13.55;6.60;;;2.80;99.90;;;;;;5013647;28;20083;-39
2023/02/10 02:08:29;;;;;;;11.98;6.13;;;2.80;99.90;;;;;;5021494;28;20500;-38
2023/02/10 02:11:23;;;;;;;15.63;7.20;;;2.80;99.90;;;;;;5024225;28;20522;-39
2023/02/10 02:14:14;;;;;;;17.13;5.97;;;2.80;99.90;;;;;;5030481;28;20017;-37
2023/02/10 02:17:05;;;;;;;23.10;6.70;;;2.80;99.90;;;;;;5013542;28;20101;-49
2023/02/10 02:23:23;;;;;;;15.70;6.35;;;2.70;99.90;;;;;;5020043;28;20511;-38
2023/02/10 02:26:01;;;;;;;19.10;7.22;;;2.70;99.90;;;;;;5032371;28;20573;-45
2023/02/10 02:28:54;;;;;;;17.13;7.10;;;2.70;99.90;;;;;;5032612;28;20095;-36
2023/02/10 02:31:56;;;;;;;19.77;8.43;;;2.70;99.90;;;;;;5027716;28;20124;-37
2023/02/10 02:34:30;;;;;;;21.08;6.82;;;2.60;99.90;;;;;;5015177;28;20037;-39
2023/02/10 02:37:01;;;;;;;17.92;6.53;;;2.60;99.90;;;;;;5029744;28;20116;-39
2023/02/10 02:39:27;;;;;;;16.02;8.00;;;2.60;99.90;;;;;;5033094;28;20044;-39
2023/02/10 02:42:12;;;;;;;17.85;7.65;;;2.60;99.90;;;;;;5016539;28;20109;-39
2023/02/10 02:44:38;;;;;;;19.67;6.93;;;2.60;99.90;;;;;;5013337;28;20034;-40
2023/02/10 02:47:30;;;;;;;19.00;7.78;;;2.60;99.90;;;;;;5019750;28;20091;-39
2023/02/10 02:50:29;;;;;;;21.40;7.75;;;2.60;99.90;;;;;;5064504;28;20041;-39
2023/02/10 02:53:46;;;;;;;17.17;6.50;;;2.70;99.90;;;;;;5027432;28;20041;-38
2023/02/10 02:56:26;;;;;;;22.83;8.60;;;2.70;99.90;;;;;;5023425;28;20044;-39
2023/02/10 02:59:03;;;;;;;14.48;6.63;;;2.70;99.90;;;;;;5032915;28;20394;-39
2023/02/10 03:01:36;;;;;;;17.83;8.02;;;2.70;99.90;;;;;;5023161;28;20049;-39
2023/02/10 03:04:03;;;;;;;18.63;6.60;;;2.70;99.90;;;;;;5012900;28;20486;-39
2023/02/10 03:06:29;;;;;;;19.80;8.18;;;2.70;99.90;;;;;;5026535;28;20037;-38
2023/02/10 03:08:54;;;;;;;18.45;9.10;;;2.70;99.90;;;;;;5012716;28;20048;-38
2023/02/10 03:11:20;;;;;;;23.88;9.10;;;2.70;99.90;;;;;;5025973;28;20915;-39
2023/02/10 03:13:46;;;;;;;17.30;7.72;;;2.60;99.90;;;;;;5031366;28;20029;-39
2023/02/10 03:16:12;;;;;;;24.80;9.75;;;2.60;99.90;;;;;;5026883;28;20107;-39
2023/02/10 03:18:38;;;;;;;22.48;10.02;;;2.60;99.90;;;;;;5013292;28;20030;-39
2023/02/10 03:21:04;;;;;;;21.40;9.05;;;2.60;99.90;;;;;;5014616;28;20128;-39
2023/02/10 03:23:29;;;;;;;25.42;9.13;;;2.60;99.90;;;;;;5030889;28;20049;-38
2023/02/10 03:25:58;;;;;;;26.73;9.95;;;2.60;99.90;;;;;;5016897;28;20034;-37
2023/02/10 03:28:24;;;;;;;22.08;9.77;;;2.60;99.90;;;;;;5017104;28;20430;-37
2023/02/10 03:30:50;;;;;;;22.58;9.73;;;2.60;99.90;;;;;;5016486;28;20115;-37
2023/02/10 03:33:16;;;;;;;33.10;11.40;;;2.60;99.90;;;;;;5026723;28;20044;-33
2023/02/10 03:35:43;;;;;;;28.88;10.35;;;2.60;99.90;;;;;;5036456;28;20034;-34
2023/02/10 03:38:09;;;;;;;42.78;10.23;;;2.60;99.90;;;;;;5036641;28;20486;-36
2023/02/10 03:40:35;;;;;;;19.75;10.43;;;2.60;99.90;;;;;;5035516;28;20052;-34
2023/02/10 03:43:00;;;;;;;26.42;11.52;;;2.60;99.90;;;;;;5017206;28;20384;-31
2023/02/10 03:45:26;;;;;;;24.17;10.18;;;2.70;99.90;;;;;;5016775;28;20421;-35
2023/02/10 03:47:52;;;;;;;28.25;10.32;;;2.60;99.90;;;;;;5016308;28;20034;-31
2023/02/10 03:50:17;;;;;;;28.30;10.65;;;2.70;99.90;;;;;;5016306;28;20041;-46
2023/02/10 03:52:43;;;;;;;29.48;10.43;;;2.70;99.90;;;;;;5031263;28;20470;-47
2023/02/10 03:55:08;;;;;;;27.67;10.52;;;2.70;99.90;;;;;;5024242;28;20029;-35
2023/02/10 03:57:34;;;;;;;25.70;10.60;;;2.70;99.90;;;;;;5026626;28;20475;-35
2023/02/10 04:00:00;;;;;;;28.85;10.88;;;2.70;99.90;;;;;;5016242;28;20486;-37
2023/02/10 04:02:26;;;;;;;30.85;10.25;;;2.80;99.90;;;;;;5027545;28;20044;-36
2023/02/10 04:04:51;;;;;;;28.10;10.75;;;2.80;99.90;;;;;;5035891;28;20034;-36
2023/02/10 04:07:17;;;;;;;28.00;10.55;;;2.80;99.90;;;;;;5035818;28;20478;-36
2023/02/10 04:09:43;;;;;;;29.15;11.80;;;2.70;99.90;;;;;;5036180;28;20418;-36
2023/02/10 04:12:08;;;;;;;26.15;9.75;;;2.70;99.90;;;;;;5031926;28;20017;-47
2023/02/10 04:14:34;;;;;;;23.50;9.95;;;2.70;99.90;;;;;;5023075;28;20088;-47
2023/02/10 04:17:00;;;;;;;28.00;10.70;;;2.70;99.90;;;;;;5020754;28;20014;-48
2023/02/10 04:19:26;;;;;;;26.92;11.45;;;2.70;99.90;;;;;;5034900;28;20116;-48
2023/02/10 04:21:51;;;;;;;24.85;11.65;;;2.70;99.90;;;;;;5035629;28;20470;-47
2023/02/10 04:24:17;;;;;;;26.73;10.90;;;2.70;99.90;;;;;;5017203;28;20034;-47
2023/02/10 04:26:43;;;;;;;30.70;10.25;;;2.70;99.90;;;;;;5015773;28;20077;-34
2023/02/10 04:29:08;;;;;;;26.15;10.80;;;2.60;99.90;;;;;;5015734;28;20528;-33
2023/02/10 04:31:34;;;;;;;26.33;10.73;;;2.60;99.90;;;;;;5031601;28;20132;-37
2023/02/10 04:33:59;;;;;;;32.20;10.68;;;2.60;99.90;;;;;;5034134;28;20017;-47
2023/02/10 04:36:25;;;;;;;32.15;12.45;;;2.60;99.90;;;;;;5034584;28;20071;-36
2023/02/10 04:38:51;;;;;;;33.13;12.05;;;2.60;99.90;;;;;;5035308;28;20379;-33
2023/02/10 04:41:16;;;;;;;31.60;11.18;;;2.60;99.90;;;;;;5033850;28;20060;-37
2023/02/10 04:43:42;;;;;;;33.78;12.98;;;2.50;99.90;;;;;;5035209;28;20120;-47
2023/02/10 04:46:07;;;;;;;29.08;11.75;;;2.50;99.90;;;;;;5035165;28;20108;-47
2023/02/10 04:48:34;;;;;;;28.67;11.52;;;2.50;99.90;;;;;;5032154;28;20056;-47
2023/02/10 04:51:04;;;;;;;29.50;11.43;;;2.60;99.90;;;;;;5033697;28;20021;-40
2023/02/10 04:53:30;;;;;;;24.17;11.43;;;2.50;99.90;;;;;;5034747;28;20033;-47
2023/02/10 04:55:56;;;;;;;33.72;12.50;;;2.50;99.90;;;;;;5034881;28;20044;-37
2023/02/10 04:58:21;;;;;;;27.00;11.57;;;2.50;99.90;;;;;;5035207;28;20021;-40
2023/02/10 05:00:47;;;;;;;39.45;13.15;;;2.40;99.90;;;;;;5033513;28;20022;-37
2023/02/10 05:03:13;;;;;;;25.23;12.32;;;2.40;99.90;;;;;;5016814;28;20037;-39
2023/02/10 05:05:39;;;;;;;31.25;12.38;;;2.40;99.90;;;;;;5032881;28;20036;-47
2023/02/10 05:08:04;;;;;;;30.67;12.23;;;2.40;99.90;;;;;;5032178;28;20486;-35
2023/02/10 05:10:30;;;;;;;34.22;12.32;;;2.40;99.90;;;;;;5033762;28;20025;-35
2023/02/10 05:12:56;;;;;;;30.02;13.13;;;2.40;99.90;;;;;;5033115;28;20022;-37
2023/02/10 05:15:21;;;;;;;31.40;13.23;;;2.40;99.90;;;;;;5034834;28;20049;-47
2023/02/10 05:17:47;;;;;;;34.03;12.65;;;2.40;99.90;;;;;;5021802;28;20026;-47
2023/02/10 05:20:12;;;;;;;30.65;11.70;;;2.50;99.90;;;;;;5020783;28;20537;-47
2023/02/10 05:22:39;;;;;;;30.25;11.75;;;2.50;99.90;;;;;;5018265;28;20029;-45
2023/02/10 05:25:06;;;;;;;24.67;11.60;;;2.50;99.90;;;;;;5014538;28;20080;-47
2023/02/10 05:27:31;;;;;;;29.10;11.38;;;2.50;99.90;;;;;;5014479;28;20120;-46
2023/02/10 05:29:57;;;;;;;30.88;12.45;;;2.60;99.90;;;;;;5021747;28;20118;-37
2023/02/10 05:32:23;;;;;;;30.20;12.27;;;2.60;99.90;;;;;;5014582;28;20022;-34
2023/02/10 05:34:48;;;;;;;35.72;13.13;;;2.60;99.90;;;;;;5014718;28;20479;-37
2023/02/10 05:37:14;;;;;;;28.17;12.40;;;2.70;99.90;;;;;;5013126;28;20427;-37
2023/02/10 05:39:39;;;;;;;32.30;13.48;;;2.70;99.90;;;;;;5030695;28;20048;-34
2023/02/10 05:42:05;;;;;;;27.35;11.52;;;2.70;99.90;;;;;;5030966;28;20099;-37
2023/02/10 05:44:31;;;;;;;30.67;12.75;;;2.60;99.90;;;;;;5025937;28;20025;-37
2023/02/10 05:46:57;;;;;;;29.33;12.10;;;2.60;99.90;;;;;;5014520;28;20048;-37
2023/02/10 05:49:23;;;;;;;35.08;11.95;;;2.70;99.90;;;;;;5018838;28;20374;-37
2023/02/10 05:51:49;;;;;;;36.70;14.15;;;2.60;99.90;;;;;;5024242;28;20026;-35
2023/02/10 05:54:15;;;;;;;31.20;12.60;;;2.60;99.90;;;;;;5033722;28;20043;-38
2023/02/10 05:56:41;;;;;;;36.22;11.98;;;2.60;99.90;;;;;;5029752;28;20540;-36
2023/02/10 05:59:07;;;;;;;36.20;10.95;;;2.60;99.90;;;;;;5028439;28;20042;-36
2023/02/10 06:01:33;;;;;;;38.45;11.80;;;2.70;99.90;;;;;;5013605;28;20026;-37
2023/02/10 06:03:58;;;;;;;34.13;12.27;;;2.70;99.90;;;;;;5031373;28;20462;-36
2023/02/10 06:06:24;;;;;;;32.53;12.30;;;2.70;99.90;;;;;;5031369;28;20079;-34
2023/02/10 06:08:50;;;;;;;27.55;10.75;;;2.70;99.90;;;;;;5016478;28;20056;-32
2023/02/10 06:11:15;;;;;;;32.17;12.35;;;2.70;99.90;;;;;;5012553;28;20030;-35
2023/02/10 06:13:41;;;;;;;22.08;10.88;;;2.70;99.90;;;;;;5018533;28;20528;-35
2023/02/10 06:16:08;;;;;;;25.88;11.70;;;2.70;99.90;;;;;;5020606;28;20083;-36
2023/02/10 06:18:34;;;;;;;32.70;11.73;;;2.70;99.90;;;;;;5018056;28;20026;-38
2023/02/10 06:21:00;;;;;;;23.70;10.68;;;2.70;99.90;;;;;;5018806;28;20029;-39
2023/02/10 06:23:25;;;;;;;30.88;10.32;;;2.70;99.90;;;;;;5013202;28;20053;-36
2023/02/10 06:25:54;;;;;;;28.52;10.65;;;2.70;99.90;;;;;;5012301;28;20113;-37
2023/02/10 06:28:23;;;;;;;;;;;2.70;99.90;;;;;;5019086;28;20104;-38
2023/02/10 06:30:49;;;;;;;30.90;9.75;;;2.60;99.90;;;;;;5030910;28;20297;-38
2023/02/10 06:33:15;;;;;;;28.75;10.55;;;2.60;99.90;;;;;;5031303;28;20021;-37
2023/02/10 06:35:40;;;;;;;25.60;10.20;;;2.60;99.90;;;;;;5033057;28;20481;-37
2023/02/10 06:38:06;;;;;;;25.95;10.07;;;2.50;99.90;;;;;;5033095;28;20056;-38
2023/02/10 06:40:31;;;;;;;21.00;9.73;;;2.50;99.90;;;;;;5033038;28;20542;-39
2023/02/10 06:42:57;;;;;;;24.27;9.65;;;2.40;99.90;;;;;;5033087;28;20033;-32
2023/02/10 06:45:23;;;;;;;24.40;9.80;;;2.40;99.90;;;;;;5033278;28;20414;-34
2023/02/10 06:47:48;;;;;;;20.67;9.23;;;2.40;99.90;;;;;;5022043;28;20362;-37
2023/02/10 06:50:14;;;;;;;19.73;9.13;;;2.40;99.90;;;;;;5031496;28;20049;-35
2023/02/10 06:52:40;;;;;;;21.35;8.65;;;2.30;99.90;;;;;;5032855;28;20398;-47
2023/02/10 06:55:06;;;;;;;22.80;9.50;;;2.30;99.90;;;;;;5032904;28;20083;-48
2023/02/10 06:57:32;;;;;;;18.25;8.32;;;2.30;99.90;;;;;;5029461;28;20035;-47
2023/02/10 06:59:58;;;;;;;25.00;9.15;;;2.20;99.90;;;;;;5032504;28;20029;-48
2023/02/10 07:02:24;;;;;;;18.50;8.75;;;2.30;99.90;;;;;;5031227;28;20026;-40
2023/02/10 07:04:50;;;;;;;22.42;8.10;;;2.20;99.90;;;;;;5030982;28;20385;-40
2023/02/10 07:07:16;;;;;;;24.63;8.43;;;2.20;99.90;;;;;;5032764;28;20063;-42
2023/02/10 07:09:42;;;;;;;21.33;8.70;;;2.10;99.90;;;;;;5032696;28;20087;-40
2023/02/10 07:12:07;;;;;;;18.42;9.75;;;2.20;99.90;;;;;;5032879;28;20029;-39
2023/02/10 07:14:33;;;;;;;20.85;8.68;;;2.20;99.90;;;;;;5032648;28;20030;-39
2023/02/10 07:16:58;;;;;;;20.95;8.18;;;2.20;99.90;;;;;;5025999;28;20386;-40
2023/02/10 07:19:24;;;;;;;22.15;9.32;;;2.20;99.90;;;;;;5012795;28;20026;-36
2023/02/10 07:21:50;;;;;;;15.23;7.68;;;2.20;99.90;;;;;;5028057;28;20022;-36
2023/02/10 07:24:16;;;;;;;20.55;9.25;;;2.20;99.90;;;;;;5032331;28;20033;-38
2023/02/10 07:26:41;;;;;;;19.90;8.20;;;2.30;99.90;;;;;;5032600;28;20033;-34
2023/02/10 07:29:07;;;;;;;19.10;7.47;;;2.30;99.90;;;;;;5032555;28;20056;-37
2023/02/10 07:31:36;;;;;;;13.52;7.68;;;2.40;99.90;;;;;;5032484;28;20041;-38
2023/02/10 07:34:03;;;;;;;27.17;8.63;;;2.40;99.90;;;;;;5031774;28;20089;-37
2023/02/10 07:36:28;;;;;;;20.33;8.68;;;2.40;99.90;;;;;;5029130;28;20489;-38
2023/02/10 07:38:54;;;;;;;20.15;8.55;;;2.40;99.90;;;;;;5032528;28;20056;-37
2023/02/10 07:41:20;;;;;;;20.80;8.85;;;2.40;99.90;;;;;;5032489;28;20375;-39
2023/02/10 07:43:45;;;;;;;21.80;8.82;;;2.50;99.90;;;;;;5032359;28;20033;-39
2023/02/10 07:46:11;;;;;;;18.67;8.13;;;2.50;99.90;;;;;;5031650;28;20060;-36
2023/02/10 07:48:36;;;;;;;18.08;8.05;;;2.50;99.90;;;;;;5031560;28;20037;-35
2023/02/10 07:51:02;;;;;;;21.85;8.88;;;2.50;99.90;;;;;;5031066;28;20390;-37
2023/02/10 07:53:28;;;;;;;18.50;8.68;;;2.50;99.90;;;;;;5032374;28;20037;-46
2023/02/10 07:55:54;;;;;;;15.98;8.50;;;2.50;99.90;;;;;;5030554;28;20021;-40
2023/02/10 07:58:19;;;;;;;23.25;8.23;;;2.50;99.90;;;;;;5032346;28;20046;-41
2023/02/10 08:00:45;;;;;;;17.42;8.95;;;2.40;99.90;;;;;;5030998;28;20120;-40
2023/02/10 08:03:14;;;;;;;20.95;9.27;;;2.40;99.90;;;;;;5032442;28;20559;-40
2023/02/10 08:05:41;;;;;;;22.80;9.43;;;2.40;99.90;;;;;;5030650;28;20030;-39
2023/02/10 08:08:10;;;;;;;18.95;8.95;;;2.30;99.90;;;;;;5032066;28;20029;-41
2023/02/10 08:10:37;;;;;;;17.48;9.02;;;2.30;99.90;;;;;;5032130;28;20413;-39
2023/02/10 08:13:03;;;;;;;17.35;7.78;;;2.40;99.90;;;;;;5034810;28;20506;-39
2023/02/10 08:15:28;;;;;;;23.40;9.00;;;2.50;99.90;;;;;;5035153;28;20029;-39
2023/02/10 08:17:54;;;;;;;22.67;9.57;;;2.50;99.90;;;;;;5025056;28;20072;-39
2023/02/10 08:20:20;;;;;;;17.30;8.40;;;2.50;99.90;;;;;;5035959;28;20099;-40
2023/02/10 08:22:45;;;;;;;22.27;9.93;;;2.50;99.90;;;;;;5033979;28;20512;-40
2023/02/10 08:25:11;;;;;;;20.58;9.73;;;2.60;99.90;;;;;;5035514;28;20049;-39
2023/02/10 08:27:36;;;;;;;22.17;10.07;;;2.60;99.90;;;;;;5035597;28;20025;-40
2023/02/10 08:30:05;;;;;;;20.17;9.25;;;2.60;99.90;;;;;;5035796;28;20429;-42
2023/02/10 08:32:31;;;;;;;22.70;8.90;;;2.60;99.90;;;;;;5035469;28;20104;-40
2023/02/10 08:34:57;;;;;;;20.20;8.93;;;2.70;99.90;;;;;;5032844;28;20068;-40
2023/02/10 08:37:22;;;;;;;20.33;9.65;;;2.80;99.90;;;;;;5015551;28;20105;-40
2023/02/10 08:39:48;;;;;;;18.20;9.02;;;2.90;99.90;;;;;;5015435;28;20030;-41
2023/02/10 08:42:14;;;;;;;24.92;10.07;;;2.90;99.90;;;;;;5030764;28;20033;-41
2023/02/10 08:44:39;;;;;;;31.58;10.80;;;2.90;99.90;;;;;;5016088;28;20446;-53
2023/02/10 08:47:05;;;;;;;20.35;8.55;;;3.00;99.90;;;;;;5015433;28;20113;-40
2023/02/10 08:49:31;;;;;;;22.45;8.93;;;3.00;99.90;;;;;;5015368;28;20034;-40
2023/02/10 08:51:57;;;;;;;18.17;10.10;;;3.00;99.90;;;;;;5015580;28;20038;-41
2023/02/10 08:54:22;;;;;;;19.63;9.48;;;3.10;99.90;;;;;;5014876;28;20398;-42
2023/02/10 08:56:52;;;;;;;21.88;9.32;;;3.10;99.90;;;;;;5028202;28;20111;-40
2023/02/10 08:59:18;;;;;;;22.02;9.95;;;3.20;99.90;;;;;;5034899;28;20496;-41
2023/02/10 09:01:44;;;;;;;26.98;10.02;;;3.20;99.90;;;;;;5035193;28;20026;-41
2023/02/10 09:04:09;;;;;;;28.35;10.27;;;3.20;99.90;;;;;;5034772;28;20040;-41
2023/02/10 09:06:39;;;;;;;23.95;9.80;;;3.30;99.90;;;;;;5034686;28;20034;-41
2023/02/10 09:09:08;;;;;;;20.35;9.65;;;3.30;99.90;;;;;;5033069;28;20040;-41
2023/02/10 09:11:33;;;;;;;27.52;9.50;;;3.30;99.90;;;;;;5033453;28;20063;-41
2023/02/10 09:13:59;;;;;;;21.65;10.32;;;3.30;99.90;;;;;;5034861;28;20428;-40
2023/02/10 09:16:25;;;;;;;24.48;10.63;;;3.40;99.90;;;;;;5034621;28;20524;-41
2023/02/10 09:18:51;;;;;;;22.58;9.80;;;3.50;99.90;;;;;;5033289;28;20023;-42
2023/02/10 09:21:17;;;;;;;21.35;9.55;;;3.60;99.90;;;;;;5034448;28;20509;-41
2023/02/10 09:23:43;;;;;;;19.33;9.00;;;3.60;99.90;;;;;;5034057;28;20050;-42
2023/02/10 09:26:09;;;;;;;22.38;10.68;;;3.70;99.90;;;;;;5034415;28;20075;-39
2023/02/10 09:28:35;;;;;;;18.88;9.32;;;3.80;99.90;;;;;;5032337;28;20108;-39
2023/02/10 09:31:03;;;;;;;20.77;10.98;;;3.80;99.90;;;;;;5032946;28;20546;-41
2023/02/10 09:33:29;;;;;;;21.50;9.98;;;3.90;99.90;;;;;;5034626;28;20037;-42
2023/02/10 09:35:55;;;;;;;24.50;10.88;;;3.90;99.90;;;;;;5034309;28;20482;-41
2023/02/10 09:38:20;;;;;;;21.58;10.55;;;4.00;99.90;;;;;;5034126;28;20033;-37
2023/02/10 09:41:12;;;;;;;18.80;9.43;;;4.00;99.90;;;;;;5032870;28;20454;-41
2023/02/10 09:43:53;;;;;;;22.25;10.27;;;4.10;99.90;;;;;;5034063;28;20037;-39
2023/02/10 09:46:40;;;;;;;26.95;9.63;;;4.20;99.90;;;;;;5033979;28;20087;-39
2023/02/10 09:49:15;;;;;;;21.80;9.52;;;4.30;99.90;;;;;;5032802;28;20045;-37
2023/02/10 09:52:37;;;;;;;23.00;10.60;;;4.40;99.90;;;;;;5014157;28;20045;-37
2023/02/10 09:55:23;;;;;;;19.25;9.40;;;4.50;99.90;;;;;;5051403;28;20052;-38
2023/02/10 09:57:55;;;;;;;15.90;8.95;;;4.50;99.90;;;;;;5045398;28;20075;-39
2023/02/10 10:00:34;;;;;;;20.88;9.93;;;4.50;99.90;;;;;;5032284;28;20041;-39
2023/02/10 10:03:05;;;;;;;30.70;11.35;;;4.40;99.90;;;;;;5033994;28;20489;-41
2023/02/10 10:05:39;;;;;;;18.23;9.43;;;4.50;99.90;;;;;;5034046;28;20492;-39
2023/02/10 10:08:33;;;;;;;27.88;9.73;;;4.40;99.90;;;;;;5033611;28;20133;-41
2023/02/10 10:11:16;;;;;;;18.70;8.98;;;4.40;99.90;;;;;;5032483;28;20466;-41
2023/02/10 10:13:42;;;;;;;25.85;9.88;;;4.40;99.90;;;;;;5033478;28;20029;-40
2023/02/10 10:16:32;;;;;;;23.67;9.88;;;4.50;99.90;;;;;;5033422;28;20025;-42
2023/02/10 10:19:27;;;;;;;22.55;9.68;;;4.60;99.90;;;;;;5032002;28;20036;-41
2023/02/10 10:22:15;;;;;;;19.83;8.52;;;4.70;99.90;;;;;;5033014;28;20033;-40
2023/02/10 10:25:07;;;;;;;22.55;8.80;;;4.70;99.90;;;;;;5033163;28;20052;-41
2023/02/10 10:28:07;;;;;;;19.02;9.88;;;4.90;99.90;;;;;;5020948;28;20037;-39
2023/02/10 10:31:15;;;;;;;27.35;10.77;;;4.90;99.90;;;;;;5033015;28;20029;-39
2023/02/10 10:33:53;;;;;;;22.48;10.23;;;5.00;99.90;;;;;;5031887;28;20561;-34
2023/02/10 10:36:23;;;;;;;23.17;10.30;;;5.00;99.90;;;;;;5032630;28;20438;-34
2023/02/10 10:38:54;;;;;;;20.77;10.55;;;5.00;99.90;;;;;;5033065;28;20099;-36
2023/02/10 10:41:26;;;;;;;20.33;9.77;;;5.10;99.90;;;;;;5027577;28;20108;-37
2023/02/10 10:43:53;;;;;;;20.77;8.77;;;5.20;99.90;;;;;;5033016;28;20057;-34
2023/02/10 10:46:23;;;;;;;18.90;8.98;;;5.30;99.90;;;;;;5027663;28;20402;-36
2023/02/10 10:48:49;;;;;;;18.17;8.38;;;5.40;99.90;;;;;;5031892;28;20444;-36
2023/02/10 10:51:15;;;;;;;23.63;10.65;;;5.50;99.90;;;;;;5032739;28;20034;-37
2023/02/10 10:53:56;;;;;;;18.33;8.90;;;5.50;99.90;;;;;;5033122;28;20072;-38
2023/02/10 10:56:34;;;;;;;21.52;9.95;;;5.60;99.90;;;;;;5032782;28;20075;-37
2023/02/10 10:59:11;;;;;;;26.38;10.18;;;5.60;99.90;;;;;;5031813;28;20091;-36
2023/02/10 11:01:40;;;;;;;24.60;9.43;;;5.70;99.90;;;;;;5031673;28;20080;-35
2023/02/10 11:04:13;;;;;;;20.70;9.40;;;5.80;99.90;;;;;;5032625;28;20041;-35
2023/02/10 11:06:42;;;;;;;25.63;10.20;;;5.90;99.90;;;;;;5032750;28;20059;-35
2023/02/10 11:09:17;;;;;;;24.15;9.50;;;5.90;99.90;;;;;;5032599;28;20083;-35
2023/02/10 11:11:43;;;;;;;22.25;10.07;;;6.10;99.90;;;;;;5032567;28;20053;-35
2023/02/10 11:14:23;;;;;;;25.00;9.98;;;6.10;99.90;;;;;;5028742;28;20017;-35
2023/02/10 11:16:51;;;;;;;17.25;8.48;;;6.20;99.90;;;;;;5031069;28;20053;-36
2023/02/10 11:19:23;;;;;;;20.83;8.88;;;6.30;99.90;;;;;;5032522;28;20511;-35
2023/02/10 11:21:50;;;;;;;18.73;8.27;;;6.30;99.90;;;;;;5032814;28;20486;-39
2023/02/10 11:24:25;;;;;;;20.83;8.98;;;6.40;99.90;;;;;;5032339;28;20552;-36
2023/02/10 11:27:17;;;;;;;21.85;8.77;;;6.50;99.90;;;;;;5031874;28;20543;-40
2023/02/10 11:29:57;;;;;;;18.08;8.00;;;6.60;99.90;;;;;;5031180;28;20497;-38
2023/02/10 11:32:29;;;;;;;20.92;8.90;;;6.70;99.90;;;;;;5032399;28;20049;-40
2023/02/10 11:34:57;;;;;;;20.00;8.75;;;6.80;99.90;;;;;;5032537;28;20033;-39
2023/02/10 11:37:36;;;;;;;34.65;9.73;;;6.90;99.90;;;;;;5030949;28;20551;-37
2023/02/10 11:40:24;;;;;;;21.63;8.52;;;6.90;99.90;;;;;;5016796;28;20039;-36
2023/02/10 11:42:57;;;;;;;27.02;8.18;;;7.00;99.90;;;;;;5030870;28;20086;-38
2023/02/10 11:45:28;;;;;;;20.13;8.73;;;7.10;99.90;;;;;;5030009;28;20074;-38
2023/02/10 11:48:02;;;;;;;25.88;9.27;;;7.10;99.90;;;;;;5036201;28;20493;-38
2023/02/10 11:50:31;;;;;;;19.52;8.48;;;7.10;99.90;;;;;;5036028;28;20049;-38
2023/02/10 11:52:57;;;;;;;20.23;8.25;;;7.20;99.90;;;;;;5034724;28;20022;-36
2023/02/10 11:55:37;;;;;;;14.57;7.30;;;7.30;99.90;;;;;;5035958;28;20436;-38
2023/02/10 12:01:39;;;;;;;16.17;7.70;;;7.40;99.90;;;;;;5036280;28;20087;-38
2023/02/10 12:04:53;;;;;;;21.83;9.93;;;7.50;99.90;;;;;;5035922;28;20433;-36
2023/02/10 12:07:30;;;;;;;18.52;8.02;;;7.50;99.90;;;;;;5031223;28;20159;-33
2023/02/10 12:10:08;;;;;;;21.50;9.40;;;7.70;99.90;;;;;;5036040;28;20494;-38
2023/02/10 12:12:44;;;;;;;28.90;9.35;;;7.70;99.90;;;;;;5035658;28;20044;-37
2023/02/10 12:15:28;;;;;;;24.90;9.18;;;7.70;99.90;;;;;;5033295;28;20470;-38
2023/02/10 12:18:05;;;;;;;25.83;9.90;;;7.60;99.90;;;;;;5035706;28;20022;-37
2023/02/10 12:20:52;;;;;;;24.98;9.88;;;7.70;99.90;;;;;;5035638;28;20493;-39
2023/02/10 12:23:24;;;;;;;25.05;8.85;;;7.80;99.90;;;;;;5033976;28;20049;-39
2023/02/10 12:25:59;;;;;;;28.40;10.60;;;7.90;99.90;;;;;;5035755;28;20456;-36
2023/02/10 12:28:41;;;;;;;23.73;9.13;;;8.10;99.90;;;;;;5030796;28;20033;-36
2023/02/10 12:31:20;;;;;;;26.55;11.40;;;8.30;99.90;;;;;;5035404;28;20044;-36
2023/02/10 12:34:13;;;;;;;24.40;10.40;;;8.40;99.90;;;;;;5035492;28;20507;-41
2023/02/10 12:37:05;;;;;;;31.40;10.20;;;8.50;99.90;;;;;;5034198;28;20473;-36
2023/02/10 12:39:45;;;;;;;26.85;10.65;;;8.50;99.90;;;;;;5035207;28;20492;-37
2023/02/10 12:42:16;;;;;;;30.88;10.85;;;8.60;99.90;;;;;;5033754;28;20097;-39
2023/02/10 12:44:42;;;;;;;24.85;10.48;;;8.60;99.90;;;;;;5035301;28;20484;-39
2023/02/10 12:47:19;;;;;;;26.33;10.88;;;8.60;99.90;;;;;;5033650;28;20035;-34
2023/02/10 12:49:44;;;;;;;34.42;11.00;;;8.60;99.90;;;;;;5035031;28;20470;-37
2023/02/10 12:52:20;;;;;;;25.02;10.55;;;8.60;99.90;;;;;;5033878;28;20113;-38
2023/02/10 12:55:12;;;;;;;35.88;12.10;;;8.70;99.90;;;;;;5034993;28;20029;-36
2023/02/10 12:57:55;;;;;;;28.10;11.80;;;8.70;99.90;;;;;;5034349;28;20029;-37
2023/02/10 13:00:35;;;;;;;37.10;12.55;;;8.70;99.90;;;;;;5034783;28;20044;-38
2023/02/10 13:03:09;;;;;;;35.40;12.50;;;8.60;99.90;;;;;;5034125;28;20025;-38
2023/02/10 13:06:24;;;;;;;25.80;10.57;;;8.50;99.90;;;;;;5035069;28;20208;-37
2023/02/10 13:09:14;;;;;;;27.08;11.95;;;8.50;99.90;;;;;;5028204;28;20445;-38